sensor_id;sensor_type;location;lat;lon;timestamp;P1;durP1;ratioP1;P2;durP2;ratioP2
830;SDS011;397;50.564;7.272;2022-07-15T00:00:48;5.67;;;2.23;;
830;SDS011;397;50.564;7.272;2022-07-15T00:03:16;4.83;;;2.60;;
830;SDS011;397;50.564;7.272;2022-07-15T00:05:43;3.50;;;2.23;;
830;SDS011;397;50.564;7.272;2022-07-15T00:08:11;4.10;;;2.67;;
830;SDS011;397;50.564;7.272;2022-07-15T00:10:38;3.53;;;2.30;;
830;SDS011;397;50.564;7.272;2022-07-15T00:13:06;4.57;;;2.77;;
830;SDS011;397;50.564;7.272;2022-07-15T00:15:33;3.63;;;2.40;;
830;SDS011;397;50.564;7.272;2022-07-15T00:18:01;4.13;;;2.50;;
830;SDS011;397;50.564;7.272;2022-07-15T00:20:29;4.00;;;2.87;;
830;SDS011;397;50.564;7.272;2022-07-15T00:23:05;3.50;;;3.00;;
830;SDS011;397;50.564;7.272;2022-07-15T00:25:33;4.00;;;2.90;;
830;SDS011;397;50.564;7.272;2022-07-15T00:28:03;6.93;;;3.00;;
830;SDS011;397;50.564;7.272;2022-07-15T00:30:32;3.80;;;2.43;;
830;SDS011;397;50.564;7.272;2022-07-15T00:33:04;5.03;;;2.63;;
830;SDS011;397;50.564;7.272;2022-07-15T00:35:32;6.43;;;2.80;;
830;SDS011;397;50.564;7.272;2022-07-15T00:38:01;3.20;;;2.53;;
830;SDS011;397;50.564;7.272;2022-07-15T00:40:30;4.63;;;2.83;;
830;SDS011;397;50.564;7.272;2022-07-15T00:43:00;4.47;;;2.20;;
830;SDS011;397;50.564;7.272;2022-07-15T00:45:27;4.70;;;2.30;;
830;SDS011;397;50.564;7.272;2022-07-15T00:47:56;5.10;;;2.50;;
830;SDS011;397;50.564;7.272;2022-07-15T00:50:25;5.97;;;3.00;;
830;SDS011;397;50.564;7.272;2022-07-15T00:52:55;7.83;;;3.40;;
830;SDS011;397;50.564;7.272;2022-07-15T00:55:24;9.83;;;2.70;;
830;SDS011;397;50.564;7.272;2022-07-15T00:57:55;7.90;;;3.20;;
830;SDS011;397;50.564;7.272;2022-07-15T01:00:24;3.37;;;2.50;;
830;SDS011;397;50.564;7.272;2022-07-15T01:02:52;4.67;;;2.37;;
830;SDS011;397;50.564;7.272;2022-07-15T01:05:20;7.00;;;2.20;;
830;SDS011;397;50.564;7.272;2022-07-15T01:07:49;5.17;;;2.57;;
830;SDS011;397;50.564;7.272;2022-07-15T01:10:17;3.93;;;2.60;;
830;SDS011;397;50.564;7.272;2022-07-15T01:12:48;4.63;;;2.50;;
830;SDS011;397;50.564;7.272;2022-07-15T01:15:16;3.93;;;2.33;;
830;SDS011;397;50.564;7.272;2022-07-15T01:17:45;4.47;;;2.33;;
830;SDS011;397;50.564;7.272;2022-07-15T01:20:13;5.53;;;2.60;;
830;SDS011;397;50.564;7.272;2022-07-15T01:22:42;3.90;;;2.30;;
830;SDS011;397;50.564;7.272;2022-07-15T01:25:09;5.40;;;2.17;;
830;SDS011;397;50.564;7.272;2022-07-15T01:27:37;3.23;;;2.07;;
830;SDS011;397;50.564;7.272;2022-07-15T01:30:06;5.93;;;2.73;;
830;SDS011;397;50.564;7.272;2022-07-15T01:32:34;4.23;;;2.43;;
830;SDS011;397;50.564;7.272;2022-07-15T01:35:02;4.30;;;2.53;;
830;SDS011;397;50.564;7.272;2022-07-15T01:37:30;6.10;;;2.60;;
830;SDS011;397;50.564;7.272;2022-07-15T01:39:58;7.30;;;3.23;;
830;SDS011;397;50.564;7.272;2022-07-15T01:42:25;4.20;;;2.20;;
830;SDS011;397;50.564;7.272;2022-07-15T01:44:53;5.40;;;2.50;;
830;SDS011;397;50.564;7.272;2022-07-15T01:47:20;5.60;;;2.70;;
830;SDS011;397;50.564;7.272;2022-07-15T01:49:48;5.07;;;2.00;;
830;SDS011;397;50.564;7.272;2022-07-15T01:52:15;6.20;;;2.73;;
830;SDS011;397;50.564;7.272;2022-07-15T01:54:43;5.13;;;2.70;;
830;SDS011;397;50.564;7.272;2022-07-15T01:57:10;2.87;;;2.07;;
830;SDS011;397;50.564;7.272;2022-07-15T01:59:38;3.80;;;2.10;;
830;SDS011;397;50.564;7.272;2022-07-15T02:02:05;5.17;;;2.20;;
830;SDS011;397;50.564;7.272;2022-07-15T02:04:33;6.33;;;2.30;;
830;SDS011;397;50.564;7.272;2022-07-15T02:07:02;4.20;;;2.07;;
830;SDS011;397;50.564;7.272;2022-07-15T02:09:30;4.80;;;2.43;;
830;SDS011;397;50.564;7.272;2022-07-15T02:11:57;8.73;;;2.40;;
830;SDS011;397;50.564;7.272;2022-07-15T02:14:25;3.77;;;2.43;;
830;SDS011;397;50.564;7.272;2022-07-15T02:16:53;4.13;;;2.43;;
830;SDS011;397;50.564;7.272;2022-07-15T02:19:21;3.70;;;2.10;;
830;SDS011;397;50.564;7.272;2022-07-15T02:21:49;3.83;;;2.77;;
830;SDS011;397;50.564;7.272;2022-07-15T02:24:16;5.10;;;3.00;;
830;SDS011;397;50.564;7.272;2022-07-15T02:26:47;7.20;;;2.17;;
830;SDS011;397;50.564;7.272;2022-07-15T02:29:15;5.20;;;2.43;;
830;SDS011;397;50.564;7.272;2022-07-15T02:31:43;3.93;;;2.33;;
830;SDS011;397;50.564;7.272;2022-07-15T02:34:11;4.77;;;2.50;;
830;SDS011;397;50.564;7.272;2022-07-15T02:36:38;4.63;;;2.70;;
830;SDS011;397;50.564;7.272;2022-07-15T02:39:06;5.30;;;2.53;;
830;SDS011;397;50.564;7.272;2022-07-15T02:41:33;9.53;;;2.33;;
830;SDS011;397;50.564;7.272;2022-07-15T02:44:01;9.03;;;3.43;;
830;SDS011;397;50.564;7.272;2022-07-15T02:46:29;6.83;;;2.00;;
830;SDS011;397;50.564;7.272;2022-07-15T02:48:57;5.77;;;2.83;;
830;SDS011;397;50.564;7.272;2022-07-15T02:51:24;5.73;;;2.57;;
830;SDS011;397;50.564;7.272;2022-07-15T02:53:52;5.33;;;2.73;;
830;SDS011;397;50.564;7.272;2022-07-15T02:56:19;9.07;;;3.10;;
830;SDS011;397;50.564;7.272;2022-07-15T02:58:47;4.00;;;2.53;;
830;SDS011;397;50.564;7.272;2022-07-15T03:01:14;4.37;;;2.57;;
830;SDS011;397;50.564;7.272;2022-07-15T03:03:42;6.40;;;2.80;;
830;SDS011;397;50.564;7.272;2022-07-15T03:06:10;5.70;;;3.00;;
830;SDS011;397;50.564;7.272;2022-07-15T03:08:37;8.77;;;2.63;;
830;SDS011;397;50.564;7.272;2022-07-15T03:11:05;3.80;;;2.60;;
830;SDS011;397;50.564;7.272;2022-07-15T03:13:32;5.63;;;2.07;;
830;SDS011;397;50.564;7.272;2022-07-15T03:16:00;4.60;;;3.00;;
830;SDS011;397;50.564;7.272;2022-07-15T03:18:27;2.90;;;2.37;;
830;SDS011;397;50.564;7.272;2022-07-15T03:20:55;4.70;;;2.40;;
830;SDS011;397;50.564;7.272;2022-07-15T03:23:22;5.70;;;2.90;;
830;SDS011;397;50.564;7.272;2022-07-15T03:25:50;3.87;;;2.50;;
830;SDS011;397;50.564;7.272;2022-07-15T03:28:17;5.30;;;2.17;;
830;SDS011;397;50.564;7.272;2022-07-15T03:30:46;5.20;;;2.80;;
830;SDS011;397;50.564;7.272;2022-07-15T03:33:13;4.93;;;2.50;;
830;SDS011;397;50.564;7.272;2022-07-15T03:35:41;3.90;;;2.50;;
830;SDS011;397;50.564;7.272;2022-07-15T03:38:09;6.37;;;3.30;;
830;SDS011;397;50.564;7.272;2022-07-15T03:40:37;5.27;;;2.80;;
830;SDS011;397;50.564;7.272;2022-07-15T03:43:05;10.13;;;2.97;;
830;SDS011;397;50.564;7.272;2022-07-15T03:45:32;6.00;;;2.73;;
830;SDS011;397;50.564;7.272;2022-07-15T03:48:00;6.20;;;2.63;;
830;SDS011;397;50.564;7.272;2022-07-15T03:50:27;7.57;;;2.83;;
830;SDS011;397;50.564;7.272;2022-07-15T03:52:55;8.10;;;3.00;;
830;SDS011;397;50.564;7.272;2022-07-15T03:55:22;7.53;;;2.80;;
830;SDS011;397;50.564;7.272;2022-07-15T03:57:50;6.10;;;2.67;;
830;SDS011;397;50.564;7.272;2022-07-15T04:00:18;3.50;;;1.90;;
830;SDS011;397;50.564;7.272;2022-07-15T04:02:45;4.13;;;2.30;;
830;SDS011;397;50.564;7.272;2022-07-15T04:05:13;5.50;;;2.60;;
830;SDS011;397;50.564;7.272;2022-07-15T04:07:40;6.43;;;2.70;;
830;SDS011;397;50.564;7.272;2022-07-15T04:10:08;4.47;;;3.40;;
830;SDS011;397;50.564;7.272;2022-07-15T04:12:36;5.90;;;2.60;;
830;SDS011;397;50.564;7.272;2022-07-15T04:15:03;5.90;;;2.53;;
830;SDS011;397;50.564;7.272;2022-07-15T04:17:32;4.33;;;2.63;;
830;SDS011;397;50.564;7.272;2022-07-15T04:19:59;3.90;;;2.27;;
830;SDS011;397;50.564;7.272;2022-07-15T04:22:27;6.30;;;3.20;;
830;SDS011;397;50.564;7.272;2022-07-15T04:24:55;4.80;;;3.00;;
830;SDS011;397;50.564;7.272;2022-07-15T04:27:22;6.20;;;2.53;;
830;SDS011;397;50.564;7.272;2022-07-15T04:29:50;10.53;;;3.37;;
830;SDS011;397;50.564;7.272;2022-07-15T04:32:17;6.90;;;2.83;;
830;SDS011;397;50.564;7.272;2022-07-15T04:34:45;4.70;;;2.60;;
830;SDS011;397;50.564;7.272;2022-07-15T04:37:12;9.00;;;3.17;;
830;SDS011;397;50.564;7.272;2022-07-15T04:39:40;6.00;;;3.10;;
830;SDS011;397;50.564;7.272;2022-07-15T04:42:07;6.57;;;3.20;;
830;SDS011;397;50.564;7.272;2022-07-15T04:44:35;7.97;;;3.00;;
830;SDS011;397;50.564;7.272;2022-07-15T04:47:02;7.83;;;3.40;;
830;SDS011;397;50.564;7.272;2022-07-15T04:49:30;7.70;;;2.80;;
830;SDS011;397;50.564;7.272;2022-07-15T04:52:16;4.73;;;2.83;;
830;SDS011;397;50.564;7.272;2022-07-15T04:54:43;5.17;;;2.83;;
830;SDS011;397;50.564;7.272;2022-07-15T04:57:11;8.10;;;3.13;;
830;SDS011;397;50.564;7.272;2022-07-15T04:59:38;6.53;;;3.63;;
830;SDS011;397;50.564;7.272;2022-07-15T05:02:06;7.87;;;3.20;;
830;SDS011;397;50.564;7.272;2022-07-15T05:04:33;6.17;;;3.10;;
830;SDS011;397;50.564;7.272;2022-07-15T05:07:01;9.47;;;3.30;;
830;SDS011;397;50.564;7.272;2022-07-15T05:09:29;5.43;;;2.60;;
830;SDS011;397;50.564;7.272;2022-07-15T05:11:57;4.83;;;2.73;;
830;SDS011;397;50.564;7.272;2022-07-15T05:14:25;7.67;;;3.10;;
830;SDS011;397;50.564;7.272;2022-07-15T05:16:52;6.20;;;3.40;;
830;SDS011;397;50.564;7.272;2022-07-15T05:19:21;6.30;;;3.43;;
830;SDS011;397;50.564;7.272;2022-07-15T05:21:48;8.63;;;3.07;;
830;SDS011;397;50.564;7.272;2022-07-15T05:24:16;12.60;;;3.40;;
830;SDS011;397;50.564;7.272;2022-07-15T05:26:44;5.97;;;2.90;;
830;SDS011;397;50.564;7.272;2022-07-15T05:29:12;8.57;;;3.87;;
830;SDS011;397;50.564;7.272;2022-07-15T05:31:39;6.70;;;2.73;;
830;SDS011;397;50.564;7.272;2022-07-15T05:34:07;5.73;;;2.90;;
830;SDS011;397;50.564;7.272;2022-07-15T05:36:35;3.53;;;2.43;;
830;SDS011;397;50.564;7.272;2022-07-15T05:39:03;6.90;;;3.03;;
830;SDS011;397;50.564;7.272;2022-07-15T05:41:30;5.77;;;2.70;;
830;SDS011;397;50.564;7.272;2022-07-15T05:43:58;6.03;;;3.00;;
830;SDS011;397;50.564;7.272;2022-07-15T05:46:26;8.23;;;2.83;;
830;SDS011;397;50.564;7.272;2022-07-15T05:48:53;8.77;;;3.27;;
830;SDS011;397;50.564;7.272;2022-07-15T05:51:21;7.07;;;2.80;;
830;SDS011;397;50.564;7.272;2022-07-15T05:53:49;7.10;;;3.27;;
830;SDS011;397;50.564;7.272;2022-07-15T05:56:16;6.93;;;3.00;;
830;SDS011;397;50.564;7.272;2022-07-15T05:58:44;5.43;;;2.63;;
830;SDS011;397;50.564;7.272;2022-07-15T06:01:11;5.90;;;2.50;;
830;SDS011;397;50.564;7.272;2022-07-15T06:03:39;4.13;;;2.43;;
830;SDS011;397;50.564;7.272;2022-07-15T06:06:06;5.60;;;2.67;;
830;SDS011;397;50.564;7.272;2022-07-15T06:08:34;8.37;;;2.67;;
830;SDS011;397;50.564;7.272;2022-07-15T06:11:01;7.20;;;2.87;;
830;SDS011;397;50.564;7.272;2022-07-15T06:13:29;7.27;;;2.30;;
830;SDS011;397;50.564;7.272;2022-07-15T06:15:57;6.07;;;2.30;;
830;SDS011;397;50.564;7.272;2022-07-15T06:18:24;7.20;;;3.03;;
830;SDS011;397;50.564;7.272;2022-07-15T06:20:52;8.83;;;3.27;;
830;SDS011;397;50.564;7.272;2022-07-15T06:23:20;7.23;;;3.00;;
830;SDS011;397;50.564;7.272;2022-07-15T06:25:48;5.97;;;3.50;;
830;SDS011;397;50.564;7.272;2022-07-15T06:28:16;8.20;;;3.17;;
830;SDS011;397;50.564;7.272;2022-07-15T06:30:43;7.53;;;3.37;;
830;SDS011;397;50.564;7.272;2022-07-15T06:33:11;11.00;;;2.80;;
830;SDS011;397;50.564;7.272;2022-07-15T06:35:38;6.03;;;3.03;;
830;SDS011;397;50.564;7.272;2022-07-15T06:38:06;8.33;;;3.40;;
830;SDS011;397;50.564;7.272;2022-07-15T06:40:34;7.93;;;3.60;;
830;SDS011;397;50.564;7.272;2022-07-15T06:43:02;7.37;;;3.83;;
830;SDS011;397;50.564;7.272;2022-07-15T06:45:29;6.80;;;2.80;;
830;SDS011;397;50.564;7.272;2022-07-15T06:47:57;8.87;;;3.00;;
830;SDS011;397;50.564;7.272;2022-07-15T06:50:25;7.37;;;3.27;;
830;SDS011;397;50.564;7.272;2022-07-15T06:52:53;8.63;;;3.47;;
830;SDS011;397;50.564;7.272;2022-07-15T06:55:20;8.33;;;3.43;;
830;SDS011;397;50.564;7.272;2022-07-15T06:57:48;8.37;;;4.07;;
830;SDS011;397;50.564;7.272;2022-07-15T07:00:15;9.23;;;3.27;;
830;SDS011;397;50.564;7.272;2022-07-15T07:02:43;9.07;;;4.20;;
830;SDS011;397;50.564;7.272;2022-07-15T07:05:12;9.53;;;3.63;;
830;SDS011;397;50.564;7.272;2022-07-15T07:07:39;6.10;;;2.77;;
830;SDS011;397;50.564;7.272;2022-07-15T07:10:07;6.53;;;2.70;;
830;SDS011;397;50.564;7.272;2022-07-15T07:12:35;5.07;;;3.03;;
830;SDS011;397;50.564;7.272;2022-07-15T07:15:03;5.37;;;2.63;;
830;SDS011;397;50.564;7.272;2022-07-15T07:17:33;8.03;;;3.97;;
830;SDS011;397;50.564;7.272;2022-07-15T07:20:00;9.13;;;4.00;;
830;SDS011;397;50.564;7.272;2022-07-15T07:22:28;8.10;;;3.47;;
830;SDS011;397;50.564;7.272;2022-07-15T07:24:55;6.60;;;3.27;;
830;SDS011;397;50.564;7.272;2022-07-15T07:27:25;9.20;;;4.33;;
830;SDS011;397;50.564;7.272;2022-07-15T07:29:52;9.23;;;4.00;;
830;SDS011;397;50.564;7.272;2022-07-15T07:32:20;8.97;;;4.00;;
830;SDS011;397;50.564;7.272;2022-07-15T07:34:47;6.70;;;4.30;;
830;SDS011;397;50.564;7.272;2022-07-15T07:37:16;9.50;;;4.93;;
830;SDS011;397;50.564;7.272;2022-07-15T07:39:43;9.53;;;4.80;;
830;SDS011;397;50.564;7.272;2022-07-15T07:42:11;7.93;;;4.97;;
830;SDS011;397;50.564;7.272;2022-07-15T07:44:39;13.40;;;5.03;;
830;SDS011;397;50.564;7.272;2022-07-15T07:47:08;5.10;;;3.33;;
830;SDS011;397;50.564;7.272;2022-07-15T07:49:36;7.87;;;5.33;;
830;SDS011;397;50.564;7.272;2022-07-15T07:52:03;12.10;;;4.20;;
830;SDS011;397;50.564;7.272;2022-07-15T07:54:32;7.80;;;3.77;;
830;SDS011;397;50.564;7.272;2022-07-15T07:56:59;14.37;;;4.10;;
830;SDS011;397;50.564;7.272;2022-07-15T07:59:27;6.60;;;4.30;;
830;SDS011;397;50.564;7.272;2022-07-15T08:01:55;7.63;;;3.33;;
830;SDS011;397;50.564;7.272;2022-07-15T08:04:23;10.97;;;5.87;;
830;SDS011;397;50.564;7.272;2022-07-15T08:06:50;7.17;;;5.00;;
830;SDS011;397;50.564;7.272;2022-07-15T08:09:18;7.10;;;4.90;;
830;SDS011;397;50.564;7.272;2022-07-15T08:11:45;9.77;;;4.70;;
830;SDS011;397;50.564;7.272;2022-07-15T08:14:13;9.30;;;5.53;;
830;SDS011;397;50.564;7.272;2022-07-15T08:16:40;7.13;;;5.93;;
830;SDS011;397;50.564;7.272;2022-07-15T08:19:08;15.97;;;14.37;;
830;SDS011;397;50.564;7.272;2022-07-15T08:21:38;8.87;;;4.43;;
830;SDS011;397;50.564;7.272;2022-07-15T08:24:05;5.70;;;3.70;;
830;SDS011;397;50.564;7.272;2022-07-15T08:26:32;7.87;;;4.50;;
830;SDS011;397;50.564;7.272;2022-07-15T08:29:01;6.77;;;3.47;;
830;SDS011;397;50.564;7.272;2022-07-15T08:31:29;6.30;;;3.37;;
830;SDS011;397;50.564;7.272;2022-07-15T08:33:57;6.60;;;3.00;;
830;SDS011;397;50.564;7.272;2022-07-15T08:36:24;5.33;;;4.07;;
830;SDS011;397;50.564;7.272;2022-07-15T08:38:52;6.90;;;3.33;;
830;SDS011;397;50.564;7.272;2022-07-15T08:41:19;5.10;;;3.87;;
830;SDS011;397;50.564;7.272;2022-07-15T08:43:47;5.07;;;3.70;;
830;SDS011;397;50.564;7.272;2022-07-15T08:46:14;4.83;;;3.40;;
830;SDS011;397;50.564;7.272;2022-07-15T08:48:48;7.97;;;3.27;;
830;SDS011;397;50.564;7.272;2022-07-15T08:51:16;4.17;;;3.37;;
830;SDS011;397;50.564;7.272;2022-07-15T08:53:50;5.47;;;3.50;;
830;SDS011;397;50.564;7.272;2022-07-15T08:56:18;8.93;;;4.60;;
830;SDS011;397;50.564;7.272;2022-07-15T08:58:46;5.73;;;3.23;;
830;SDS011;397;50.564;7.272;2022-07-15T09:01:14;5.00;;;2.93;;
830;SDS011;397;50.564;7.272;2022-07-15T09:03:42;4.80;;;2.70;;
830;SDS011;397;50.564;7.272;2022-07-15T09:06:10;6.03;;;2.67;;
830;SDS011;397;50.564;7.272;2022-07-15T09:08:40;7.37;;;2.40;;
830;SDS011;397;50.564;7.272;2022-07-15T09:11:07;3.73;;;2.27;;
830;SDS011;397;50.564;7.272;2022-07-15T09:13:36;4.80;;;1.93;;
830;SDS011;397;50.564;7.272;2022-07-15T09:16:05;4.63;;;2.17;;
830;SDS011;397;50.564;7.272;2022-07-15T09:18:36;6.70;;;2.60;;
830;SDS011;397;50.564;7.272;2022-07-15T09:21:26;3.33;;;2.57;;
830;SDS011;397;50.564;7.272;2022-07-15T09:23:43;5.50;;;2.30;;
830;SDS011;397;50.564;7.272;2022-07-15T09:26:30;4.67;;;2.27;;
830;SDS011;397;50.564;7.272;2022-07-15T09:29:00;3.83;;;2.20;;
830;SDS011;397;50.564;7.272;2022-07-15T09:34:16;4.73;;;1.97;;
830;SDS011;397;50.564;7.272;2022-07-15T09:36:45;6.07;;;2.33;;
830;SDS011;397;50.564;7.272;2022-07-15T09:39:19;3.90;;;2.20;;
830;SDS011;397;50.564;7.272;2022-07-15T09:41:48;5.00;;;2.47;;
830;SDS011;397;50.564;7.272;2022-07-15T09:44:20;4.07;;;1.87;;
830;SDS011;397;50.564;7.272;2022-07-15T09:46:50;7.63;;;2.33;;
830;SDS011;397;50.564;7.272;2022-07-15T09:51:56;4.50;;;1.63;;
830;SDS011;397;50.564;7.272;2022-07-15T09:54:26;4.10;;;1.80;;
830;SDS011;397;50.564;7.272;2022-07-15T09:56:58;5.13;;;1.80;;
830;SDS011;397;50.564;7.272;2022-07-15T09:59:28;3.80;;;1.83;;
830;SDS011;397;50.564;7.272;2022-07-15T10:01:57;4.43;;;1.87;;
830;SDS011;397;50.564;7.272;2022-07-15T10:04:26;3.33;;;1.90;;
830;SDS011;397;50.564;7.272;2022-07-15T10:06:55;3.87;;;2.27;;
830;SDS011;397;50.564;7.272;2022-07-15T10:09:26;3.37;;;1.90;;
830;SDS011;397;50.564;7.272;2022-07-15T10:12:02;4.03;;;2.17;;
830;SDS011;397;50.564;7.272;2022-07-15T10:14:46;5.10;;;2.40;;
830;SDS011;397;50.564;7.272;2022-07-15T10:17:17;4.60;;;2.17;;
830;SDS011;397;50.564;7.272;2022-07-15T10:25:25;7.90;;;2.70;;
830;SDS011;397;50.564;7.272;2022-07-15T10:28:15;8.93;;;2.10;;
830;SDS011;397;50.564;7.272;2022-07-15T10:30:44;3.40;;;2.20;;
830;SDS011;397;50.564;7.272;2022-07-15T10:33:14;3.60;;;2.13;;
830;SDS011;397;50.564;7.272;2022-07-15T10:35:49;3.63;;;1.70;;
830;SDS011;397;50.564;7.272;2022-07-15T10:38:21;3.70;;;1.47;;
830;SDS011;397;50.564;7.272;2022-07-15T10:40:57;5.00;;;1.80;;
830;SDS011;397;50.564;7.272;2022-07-15T10:43:42;3.33;;;1.50;;
830;SDS011;397;50.564;7.272;2022-07-15T10:46:25;4.83;;;1.90;;
830;SDS011;397;50.564;7.272;2022-07-15T10:48:46;3.67;;;1.93;;
830;SDS011;397;50.564;7.272;2022-07-15T10:54:08;8.40;;;2.00;;
830;SDS011;397;50.564;7.272;2022-07-15T10:56:48;4.70;;;1.77;;
830;SDS011;397;50.564;7.272;2022-07-15T10:59:18;4.57;;;1.73;;
830;SDS011;397;50.564;7.272;2022-07-15T11:01:47;3.07;;;1.60;;
830;SDS011;397;50.564;7.272;2022-07-15T11:04:25;4.50;;;1.80;;
830;SDS011;397;50.564;7.272;2022-07-15T11:09:43;4.33;;;2.20;;
830;SDS011;397;50.564;7.272;2022-07-15T11:12:12;4.87;;;1.67;;
830;SDS011;397;50.564;7.272;2022-07-15T11:17:24;5.90;;;2.07;;
830;SDS011;397;50.564;7.272;2022-07-15T11:19:57;15.73;;;2.03;;
830;SDS011;397;50.564;7.272;2022-07-15T11:22:27;3.47;;;1.57;;
830;SDS011;397;50.564;7.272;2022-07-15T11:24:55;5.23;;;1.93;;
830;SDS011;397;50.564;7.272;2022-07-15T11:27:24;3.60;;;1.63;;
830;SDS011;397;50.564;7.272;2022-07-15T11:29:53;5.53;;;1.97;;
830;SDS011;397;50.564;7.272;2022-07-15T11:32:24;4.50;;;1.93;;
830;SDS011;397;50.564;7.272;2022-07-15T11:34:53;3.20;;;2.17;;
830;SDS011;397;50.564;7.272;2022-07-15T11:37:30;5.03;;;2.30;;
830;SDS011;397;50.564;7.272;2022-07-15T11:40:11;5.73;;;2.10;;
830;SDS011;397;50.564;7.272;2022-07-15T11:42:35;3.83;;;2.27;;
830;SDS011;397;50.564;7.272;2022-07-15T11:45:32;4.40;;;1.87;;
830;SDS011;397;50.564;7.272;2022-07-15T11:48:01;3.27;;;2.10;;
830;SDS011;397;50.564;7.272;2022-07-15T11:50:35;4.60;;;2.33;;
830;SDS011;397;50.564;7.272;2022-07-15T11:53:13;4.47;;;2.10;;
830;SDS011;397;50.564;7.272;2022-07-15T11:55:51;3.60;;;2.20;;
830;SDS011;397;50.564;7.272;2022-07-15T11:58:26;5.40;;;2.13;;
830;SDS011;397;50.564;7.272;2022-07-15T12:01:12;4.93;;;2.20;;
830;SDS011;397;50.564;7.272;2022-07-15T12:03:42;4.90;;;2.40;;
830;SDS011;397;50.564;7.272;2022-07-15T12:06:12;4.80;;;3.20;;
830;SDS011;397;50.564;7.272;2022-07-15T12:08:51;5.87;;;2.60;;
830;SDS011;397;50.564;7.272;2022-07-15T12:11:28;6.83;;;2.70;;
830;SDS011;397;50.564;7.272;2022-07-15T12:13:55;7.07;;;2.60;;
830;SDS011;397;50.564;7.272;2022-07-15T12:19:17;5.13;;;2.57;;
830;SDS011;397;50.564;7.272;2022-07-15T12:21:50;4.87;;;2.50;;
830;SDS011;397;50.564;7.272;2022-07-15T12:24:24;5.60;;;2.97;;
830;SDS011;397;50.564;7.272;2022-07-15T12:29:24;3.27;;;2.70;;
830;SDS011;397;50.564;7.272;2022-07-15T12:32:05;7.20;;;2.97;;
830;SDS011;397;50.564;7.272;2022-07-15T12:34:49;5.50;;;3.60;;
830;SDS011;397;50.564;7.272;2022-07-15T12:39:55;7.03;;;3.73;;
830;SDS011;397;50.564;7.272;2022-07-15T12:42:38;10.60;;;4.20;;
830;SDS011;397;50.564;7.272;2022-07-15T12:53:21;4.80;;;3.40;;
830;SDS011;397;50.564;7.272;2022-07-15T12:55:47;5.67;;;3.40;;
830;SDS011;397;50.564;7.272;2022-07-15T12:58:16;5.17;;;3.33;;
830;SDS011;397;50.564;7.272;2022-07-15T13:00:51;4.10;;;3.20;;
830;SDS011;397;50.564;7.272;2022-07-15T13:03:21;4.40;;;3.57;;
830;SDS011;397;50.564;7.272;2022-07-15T13:05:50;4.63;;;4.20;;
830;SDS011;397;50.564;7.272;2022-07-15T13:08:24;6.37;;;3.83;;
830;SDS011;397;50.564;7.272;2022-07-15T13:10:58;5.80;;;3.63;;
830;SDS011;397;50.564;7.272;2022-07-15T13:13:28;4.60;;;4.10;;
830;SDS011;397;50.564;7.272;2022-07-15T13:15:58;7.40;;;3.80;;
830;SDS011;397;50.564;7.272;2022-07-15T13:18:27;6.37;;;4.60;;
830;SDS011;397;50.564;7.272;2022-07-15T13:20:55;6.97;;;4.10;;
830;SDS011;397;50.564;7.272;2022-07-15T13:23:24;7.63;;;4.20;;
830;SDS011;397;50.564;7.272;2022-07-15T13:25:52;6.37;;;3.60;;
830;SDS011;397;50.564;7.272;2022-07-15T13:28:21;5.47;;;3.70;;
830;SDS011;397;50.564;7.272;2022-07-15T13:30:49;8.60;;;4.07;;
830;SDS011;397;50.564;7.272;2022-07-15T13:33:17;5.63;;;3.27;;
830;SDS011;397;50.564;7.272;2022-07-15T13:35:45;5.37;;;3.70;;
830;SDS011;397;50.564;7.272;2022-07-15T13:38:13;6.70;;;3.50;;
830;SDS011;397;50.564;7.272;2022-07-15T13:40:40;3.80;;;3.33;;
830;SDS011;397;50.564;7.272;2022-07-15T13:43:08;3.90;;;3.37;;
830;SDS011;397;50.564;7.272;2022-07-15T13:45:36;5.20;;;3.47;;
830;SDS011;397;50.564;7.272;2022-07-15T13:48:03;5.37;;;3.20;;
830;SDS011;397;50.564;7.272;2022-07-15T13:50:33;5.67;;;3.33;;
830;SDS011;397;50.564;7.272;2022-07-15T13:53:18;8.07;;;3.70;;
830;SDS011;397;50.564;7.272;2022-07-15T13:55:46;4.97;;;3.07;;
830;SDS011;397;50.564;7.272;2022-07-15T13:58:13;6.60;;;4.07;;
830;SDS011;397;50.564;7.272;2022-07-15T14:00:41;4.63;;;3.70;;
830;SDS011;397;50.564;7.272;2022-07-15T14:03:08;4.90;;;3.07;;
830;SDS011;397;50.564;7.272;2022-07-15T14:05:36;7.43;;;3.27;;
830;SDS011;397;50.564;7.272;2022-07-15T14:08:04;4.10;;;3.40;;
830;SDS011;397;50.564;7.272;2022-07-15T14:10:32;5.87;;;4.20;;
830;SDS011;397;50.564;7.272;2022-07-15T14:12:59;7.43;;;3.30;;
830;SDS011;397;50.564;7.272;2022-07-15T14:15:27;6.10;;;3.03;;
830;SDS011;397;50.564;7.272;2022-07-15T14:17:55;6.43;;;4.80;;
830;SDS011;397;50.564;7.272;2022-07-15T14:20:22;8.57;;;4.50;;
830;SDS011;397;50.564;7.272;2022-07-15T14:22:50;6.27;;;3.57;;
830;SDS011;397;50.564;7.272;2022-07-15T14:25:17;3.40;;;3.00;;
830;SDS011;397;50.564;7.272;2022-07-15T14:27:45;5.17;;;3.43;;
830;SDS011;397;50.564;7.272;2022-07-15T14:30:13;5.77;;;3.20;;
830;SDS011;397;50.564;7.272;2022-07-15T14:32:41;3.50;;;2.50;;
830;SDS011;397;50.564;7.272;2022-07-15T14:35:09;4.10;;;2.47;;
830;SDS011;397;50.564;7.272;2022-07-15T14:37:36;6.83;;;3.13;;
830;SDS011;397;50.564;7.272;2022-07-15T14:40:05;6.20;;;2.93;;
830;SDS011;397;50.564;7.272;2022-07-15T14:42:34;3.23;;;2.50;;
830;SDS011;397;50.564;7.272;2022-07-15T14:45:02;8.13;;;2.93;;
830;SDS011;397;50.564;7.272;2022-07-15T14:47:30;3.30;;;1.77;;
830;SDS011;397;50.564;7.272;2022-07-15T14:49:58;3.80;;;1.93;;
830;SDS011;397;50.564;7.272;2022-07-15T14:52:25;4.27;;;2.07;;
830;SDS011;397;50.564;7.272;2022-07-15T14:54:53;5.20;;;2.00;;
830;SDS011;397;50.564;7.272;2022-07-15T14:57:21;6.50;;;2.00;;
830;SDS011;397;50.564;7.272;2022-07-15T14:59:49;3.80;;;1.57;;
830;SDS011;397;50.564;7.272;2022-07-15T15:02:16;3.20;;;1.90;;
830;SDS011;397;50.564;7.272;2022-07-15T15:04:45;7.63;;;1.53;;
830;SDS011;397;50.564;7.272;2022-07-15T15:07:13;2.90;;;1.70;;
830;SDS011;397;50.564;7.272;2022-07-15T15:09:40;5.93;;;1.80;;
830;SDS011;397;50.564;7.272;2022-07-15T15:12:08;3.30;;;1.63;;
830;SDS011;397;50.564;7.272;2022-07-15T15:14:35;4.17;;;1.63;;
830;SDS011;397;50.564;7.272;2022-07-15T15:17:03;4.33;;;1.70;;
830;SDS011;397;50.564;7.272;2022-07-15T15:19:31;4.53;;;1.53;;
830;SDS011;397;50.564;7.272;2022-07-15T15:22:00;5.53;;;2.07;;
830;SDS011;397;50.564;7.272;2022-07-15T15:24:27;4.90;;;1.60;;
830;SDS011;397;50.564;7.272;2022-07-15T15:26:56;3.20;;;1.63;;
830;SDS011;397;50.564;7.272;2022-07-15T15:29:25;4.97;;;1.80;;
830;SDS011;397;50.564;7.272;2022-07-15T15:31:53;6.20;;;1.70;;
830;SDS011;397;50.564;7.272;2022-07-15T15:34:21;2.67;;;1.40;;
830;SDS011;397;50.564;7.272;2022-07-15T15:36:48;6.90;;;2.00;;
830;SDS011;397;50.564;7.272;2022-07-15T15:39:16;3.73;;;1.47;;
830;SDS011;397;50.564;7.272;2022-07-15T15:41:43;4.10;;;1.83;;
830;SDS011;397;50.564;7.272;2022-07-15T15:44:11;4.00;;;1.63;;
830;SDS011;397;50.564;7.272;2022-07-15T15:46:38;3.83;;;1.97;;
830;SDS011;397;50.564;7.272;2022-07-15T15:49:06;4.23;;;1.30;;
830;SDS011;397;50.564;7.272;2022-07-15T15:51:34;3.50;;;1.67;;
830;SDS011;397;50.564;7.272;2022-07-15T15:54:01;5.57;;;1.50;;
830;SDS011;397;50.564;7.272;2022-07-15T15:56:29;4.80;;;2.43;;
830;SDS011;397;50.564;7.272;2022-07-15T15:58:56;3.10;;;1.43;;
830;SDS011;397;50.564;7.272;2022-07-15T16:01:24;4.50;;;2.17;;
830;SDS011;397;50.564;7.272;2022-07-15T16:03:51;3.80;;;1.90;;
830;SDS011;397;50.564;7.272;2022-07-15T16:06:19;3.07;;;1.90;;
830;SDS011;397;50.564;7.272;2022-07-15T16:08:46;3.10;;;1.57;;
830;SDS011;397;50.564;7.272;2022-07-15T16:11:16;3.93;;;1.57;;
830;SDS011;397;50.564;7.272;2022-07-15T16:13:43;6.83;;;2.40;;
830;SDS011;397;50.564;7.272;2022-07-15T16:16:12;4.00;;;1.63;;
830;SDS011;397;50.564;7.272;2022-07-15T16:18:39;4.30;;;1.70;;
830;SDS011;397;50.564;7.272;2022-07-15T16:21:07;3.30;;;1.97;;
830;SDS011;397;50.564;7.272;2022-07-15T16:23:35;5.70;;;1.80;;
830;SDS011;397;50.564;7.272;2022-07-15T16:26:02;3.30;;;1.77;;
830;SDS011;397;50.564;7.272;2022-07-15T16:28:30;3.80;;;2.00;;
830;SDS011;397;50.564;7.272;2022-07-15T16:30:58;4.40;;;1.40;;